createdAt,value
2022-10-04T16:55:06.746Z,65.00
2022-10-04T16:57:44.336Z,65.58
2022-10-04T17:00:56.075Z,66.29
2022-10-04T17:03:38.533Z,65.27
2022-10-04T17:06:26.214Z,66.52
2022-10-04T17:09:40.312Z,66.73
2022-10-04T17:12:23.083Z,68.81
2022-10-04T17:15:14.214Z,70.16
2022-10-04T17:18:13.380Z,70.96
2022-10-04T17:20:42.110Z,71.16
2022-10-04T17:23:50.187Z,71.00
2022-10-04T17:27:05.743Z,69.32
2022-10-04T17:30:11.903Z,72.45
2022-10-04T17:32:46.883Z,72.84
2022-10-04T17:35:44.676Z,72.57
2022-10-04T17:38:42.131Z,74.70
2022-10-04T17:41:54.561Z,75.70
2022-10-04T17:44:35.104Z,75.94
2022-10-04T17:48:00.429Z,75.38
2022-10-04T17:51:27.858Z,74.41
2022-10-04T17:54:29.268Z,74.52
2022-10-04T17:57:03.943Z,73.47
2022-10-04T17:59:47.164Z,73.37
2022-10-04T18:02:55.037Z,75.09
2022-10-04T18:05:41.784Z,75.78
2022-10-04T18:08:18.858Z,76.59
2022-10-04T18:11:06.282Z,77.53
2022-10-04T18:14:22.185Z,78.53
2022-10-04T18:17:01.326Z,77.00
2022-10-04T18:19:55.156Z,73.89
2022-10-04T18:22:27.473Z,73.26
2022-10-04T18:25:30.124Z,73.97
2022-10-04T18:28:08.615Z,75.77
2022-10-04T18:30:46.690Z,75.23
2022-10-04T18:33:44.808Z,75.17
2022-10-04T18:36:31.816Z,74.64
2022-10-04T18:39:22.235Z,73.79
2022-10-04T18:42:20.610Z,71.48
2022-10-04T18:45:31.479Z,71.09
2022-10-04T18:48:03.184Z,74.31
2022-10-04T18:50:43.716Z,74.60
2022-10-04T18:53:37.488Z,75.04
2022-10-04T18:56:10.793Z,74.64
2022-10-04T18:59:44.631Z,73.01
2022-10-04T19:02:37.054Z,74.36
2022-10-04T19:05:25.848Z,75.99
2022-10-04T19:08:21.959Z,76.04
2022-10-04T19:11:00.139Z,74.48
2022-10-04T19:14:06.078Z,75.35
2022-10-04T19:17:25.276Z,77.60
2022-10-04T19:20:17.814Z,76.46
2022-10-04T19:23:29.343Z,76.83
2022-10-04T19:26:38.361Z,77.05
2022-10-04T19:29:41.596Z,78.53
2022-10-04T19:33:04.819Z,79.86
2022-10-04T19:36:00.085Z,79.91
2022-10-04T19:39:25.726Z,77.83
2022-10-04T19:42:11.154Z,78.18
2022-10-04T19:45:33.573Z,78.62
2022-10-04T19:48:24.172Z,79.77
2022-10-04T19:51:02.722Z,80.04
2022-10-04T19:53:43.175Z,80.44
2022-10-04T19:56:24.727Z,82.71
2022-10-04T19:59:05.232Z,85.60
2022-10-04T20:01:36.212Z,86.29
2022-10-04T20:04:33.322Z,86.32
2022-10-04T20:07:06.760Z,86.84
2022-10-04T20:09:41.250Z,87.95
2022-10-04T20:12:45.425Z,83.94
2022-10-04T20:15:40.415Z,83.08
2022-10-04T20:18:34.036Z,85.23
2022-10-04T20:21:10.406Z,85.46
2022-10-04T20:23:41.635Z,82.43
2022-10-04T20:26:54.059Z,81.11
2022-10-04T20:29:51.716Z,80.05
2022-10-04T20:32:43.215Z,79.45
2022-10-04T20:35:34.629Z,79.12
2022-10-04T20:38:27.737Z,78.51
2022-10-04T20:40:51.985Z,78.78
2022-10-04T20:43:20.510Z,78.74
2022-10-04T20:45:55.340Z,80.63
2022-10-04T20:48:27.290Z,80.69
2022-10-04T20:50:56.627Z,80.67
2022-10-04T20:53:32.573Z,81.83
2022-10-04T20:56:26.713Z,80.13
2022-10-04T20:59:01.905Z,83.54
2022-10-04T21:01:36.051Z,81.52
2022-10-04T21:04:33.989Z,82.26
2022-10-04T21:07:08.153Z,81.81
2022-10-04T21:09:38.192Z,85.32
2022-10-04T21:12:27.632Z,82.54
2022-10-04T21:15:20.120Z,82.22
2022-10-04T21:18:06.408Z,82.05
2022-10-04T21:20:52.314Z,83.41
2022-10-04T21:23:30.502Z,82.87
2022-10-04T21:26:25.499Z,84.58
2022-10-04T21:28:57.350Z,83.87
2022-10-04T21:31:26.324Z,82.90
2022-10-04T21:33:55.052Z,82.68
2022-10-04T21:36:23.684Z,82.66
2022-10-04T21:38:54.550Z,82.02
2022-10-04T21:41:23.206Z,82.11
2022-10-04T21:43:51.791Z,82.84
2022-10-04T21:46:20.871Z,82.31
2022-10-04T21:48:49.730Z,82.26
2022-10-04T21:51:18.493Z,81.81
2022-10-04T21:53:47.589Z,85.17
2022-10-04T21:56:16.241Z,87.46
2022-10-04T21:58:44.895Z,84.20
2022-10-04T22:01:13.684Z,85.58
2022-10-04T22:03:42.373Z,84.74
2022-10-04T22:06:11.273Z,83.68
2022-10-04T22:08:40.546Z,83.49
2022-10-04T22:11:10.268Z,82.62
2022-10-04T22:13:39.743Z,82.42
2022-10-04T22:16:09.136Z,82.25
2022-10-04T22:18:37.979Z,82.69
2022-10-04T22:21:07.165Z,82.36
2022-10-04T22:23:42.739Z,82.40
2022-10-04T22:26:20.114Z,82.51
2022-10-04T22:28:53.098Z,82.67
2022-10-04T22:31:27.284Z,82.27
2022-10-04T22:33:56.722Z,82.05
2022-10-04T22:36:37.298Z,83.40
2022-10-04T22:39:08.844Z,82.61
2022-10-04T22:41:42.477Z,82.91
2022-10-04T22:44:19.589Z,82.81
2022-10-04T22:46:55.622Z,84.89
2022-10-04T22:49:33.215Z,83.20
2022-10-04T22:52:10.026Z,82.62
2022-10-04T22:54:43.155Z,83.01
2022-10-04T22:57:15.280Z,83.04
2022-10-04T22:59:52.086Z,83.34
2022-10-04T23:02:29.835Z,83.31
2022-10-04T23:05:13.731Z,82.94
2022-10-04T23:07:44.631Z,86.36
2022-10-04T23:10:17.212Z,86.93
2022-10-04T23:12:49.131Z,87.25
2022-10-04T23:15:21.088Z,87.88
2022-10-04T23:17:58.759Z,87.52
2022-10-04T23:20:29.926Z,86.92
2022-10-04T23:22:59.962Z,86.40
2022-10-04T23:25:30.381Z,86.66
2022-10-04T23:28:03.438Z,86.54
2022-10-04T23:30:32.015Z,87.43
2022-10-04T23:33:01.603Z,88.48
2022-10-04T23:35:34.788Z,88.58
2022-10-04T23:38:07.518Z,88.90
2022-10-04T23:40:36.215Z,88.12
2022-10-04T23:43:06.215Z,87.53
2022-10-04T23:45:36.846Z,87.42
2022-10-04T23:48:09.030Z,87.25
2022-10-04T23:50:39.758Z,86.60
2022-10-04T23:53:22.851Z,86.26
2022-10-04T23:55:51.573Z,85.80
2022-10-04T23:58:24.309Z,84.30
